Time;durP1;ratioP1;P1;durP2;ratioP2;P2;SDS_P1;SDS_P2;PMS_P1;PMS_P2;Temp;Humidity;BMP_temperature;BMP_pressure;BME280_temperature;BME280_humidity;BME280_pressure;Samples;Min_cycle;Max_cycle;Signal;HPM_P1;HPM_P2
2020/12/25 00:01:53;;;;;;;;;;;;;;;;;;5037855;28;869;-64
2020/12/25 00:04:19;;;;;;;;;;;;;;;;;;5038124;28;903;-62
2020/12/25 00:06:44;;;;;;;;;;;;;;;;;;5037613;28;1363;-64
2020/12/25 00:09:10;;;;;;;;;;;;;;;;;;5037621;28;1898;-63
2020/12/25 00:11:37;;;;;;;;;;;;;;;;;;5037600;28;884;-64
2020/12/25 00:14:03;;;;;;;;;;;;;;;;;;5037544;28;852;-63
2020/12/25 00:16:29;;;;;;;;;;;;;;;;;;5036974;28;1313;-63
2020/12/25 00:18:55;;;;;;;;;;;;;;;;;;5037784;28;813;-63
2020/12/25 00:21:21;;;;;;;;;;;;;;;;;;5037016;28;824;-63
2020/12/25 00:23:47;;;;;;;;;;;;;;;;;;5037262;28;796;-63
2020/12/25 00:26:26;;;;;;;;;;;;;;;;;;5037121;28;1354;-63
2020/12/25 00:28:52;;;;;;;;;;;;;;;;;;5036901;28;1898;-63
2020/12/25 00:31:25;;;;;;;;;;;;;;;;;;5037516;28;801;-63
2020/12/25 00:33:51;;;;;;;;;;;;;;;;;;5037093;28;868;-64
2020/12/25 00:36:29;;;;;;;;;;;;;;;;;;5036210;28;1247;-63
2020/12/25 00:38:55;;;;;;;;;;;;;;;;;;5036677;28;818;-63
2020/12/25 00:41:21;;;;;;;;;;;;;;;;;;5037011;28;904;-62
2020/12/25 00:43:47;;;;;;;;;;;;;;;;;;5037037;28;888;-64
2020/12/25 00:46:13;;;;;;;;;;;;;;;;;;5036491;28;1326;-64
2020/12/25 00:48:39;;;;;;;;;;;;;;;;;;5036808;28;824;-63
2020/12/25 00:51:05;;;;;;;;;;;;;;;;;;5036976;28;1894;-63
2020/12/25 00:53:30;;;;;;;;;;;;;;;;;;5019091;28;849;-63
2020/12/25 00:55:56;;;;;;;;;;;;;;;;;;5036743;28;1266;-63
2020/12/25 00:58:22;;;;;;;;;;;;;;;;;;5036908;28;839;-63
2020/12/25 01:00:47;;;;;;;;;;;;;;;;;;5037108;28;988;-63
2020/12/25 01:03:13;;;;;;;;;;;;;;;;;;5036877;28;839;-63
2020/12/25 01:05:39;;;;;;;;;;;;;;;;;;5036641;28;821;-63
2020/12/25 01:08:05;;;;;;;;;;;;;;;;;;5036458;28;1373;-63
2020/12/25 01:10:30;;;;;;;;;;;;;;;;;;5035803;28;2389;-63
2020/12/25 01:12:56;;;;;;;;;;;;;;;;;;5036343;28;966;-63
2020/12/25 01:15:21;;;;;;;;;;;;;;;;;;5035990;28;915;-63
2020/12/25 01:17:47;;;;;;;;;;;;;;;;;;5036138;28;1333;-63
2020/12/25 01:20:13;;;;;;;;;;;;;;;;;;5036092;28;836;-63
2020/12/25 01:22:38;;;;;;;;;;;;;;;;;;5036011;28;997;-63
2020/12/25 01:25:04;;;;;;;;;;;;;;;;;;5035596;28;850;-63
2020/12/25 01:27:30;;;;;;;;;;;;;;;;;;5035673;28;1349;-63
2020/12/25 01:29:55;;;;;;;;;;;;;;;;;;5035883;28;1965;-63
2020/12/25 01:32:21;;;;;;;;;;;;;;;;;;5036034;28;837;-63
2020/12/25 01:34:47;;;;;;;;;;;;;;;;;;5035555;28;784;-62
2020/12/25 01:37:12;;;;;;;;;;;;;;;;;;5035424;28;1274;-62
2020/12/25 01:39:38;;;;;;;;;;;;;;;;;;5035469;28;836;-64
2020/12/25 01:42:04;;;;;;;;;;;;;;;;;;5035530;28;922;-62
2020/12/25 01:44:29;;;;;;;;;;;;;;;;;;5036019;28;807;-62
2020/12/25 01:46:55;;;;;;;;;;;;;;;;;;5035573;28;1333;-63
2020/12/25 01:49:21;;;;;;;;;;;;;;;;;;5035751;28;2006;-63
2020/12/25 01:51:48;;;;;;;;;;;;;;;;;;5035631;28;783;-64
2020/12/25 01:54:14;;;;;;;;;;;;;;;;;;5017636;28;824;-62
2020/12/25 01:56:41;;;;;;;;;;;;;;;;;;5035435;28;1342;-63
2020/12/25 01:59:07;;;;;;;;;;;;;;;;;;5036265;28;603;-63
2020/12/25 02:01:33;;;;;;;;;;;;;;;;;;5035634;28;788;-63
2020/12/25 02:03:59;;;;;;;;;;;;;;;;;;5035909;28;1107;-64
2020/12/25 02:06:25;;;;;;;;;;;;;;;;;;5035544;28;1341;-63
2020/12/25 02:08:51;;;;;;;;;;;;;;;;;;5035334;28;804;-64
2020/12/25 02:11:18;;;;;;;;;;;;;;;;;;5035399;28;1977;-63
2020/12/25 02:13:44;;;;;;;;;;;;;;;;;;5036255;28;816;-61
2020/12/25 02:16:09;;;;;;;;;;;;;;;;;;5036333;28;1333;-59
2020/12/25 02:18:38;;;;;;;;;;;;;;;;;;5036836;28;821;-61
2020/12/25 02:21:04;;;;;;;;;;;;;;;;;;5035339;28;991;-64
2020/12/25 02:23:30;;;;;;;;;;;;;;;;;;5035157;28;969;-63
2020/12/25 02:25:56;;;;;;;;;;;;;;;;;;5034623;28;1274;-63
2020/12/25 02:28:21;;;;;;;;;;;;;;;;;;5034989;28;828;-63
2020/12/25 02:30:47;;;;;;;;;;;;;;;;;;5034369;28;1968;-63
2020/12/25 02:33:13;;;;;;;;;;;;;;;;;;5035005;28;823;-63
2020/12/25 02:35:38;;;;;;;;;;;;;;;;;;5034771;28;800;-63
2020/12/25 02:38:04;;;;;;;;;;;;;;;;;;5034558;28;1357;-63
2020/12/25 02:40:30;;;;;;;;;;;;;;;;;;5034987;28;811;-63
2020/12/25 02:42:55;;;;;;;;;;;;;;;;;;5034893;28;820;-64
2020/12/25 02:45:21;;;;;;;;;;;;;;;;;;5036669;28;983;-63
2020/12/25 02:47:48;;;;;;;;;;;;;;;;;;5038922;28;1258;-64
2020/12/25 02:50:14;;;;;;;;;;;;;;;;;;5038605;28;1902;-62
2020/12/25 02:52:39;;;;;;;;;;;;;;;;;;5038863;28;816;-63
2020/12/25 02:55:07;;;;;;;;;;;;;;;;;;5038832;28;840;-63
2020/12/25 02:57:32;;;;;;;;;;;;;;;;;;5038355;28;1239;-63
2020/12/25 02:59:58;;;;;;;;;;;;;;;;;;5039078;28;801;-63
2020/12/25 03:02:23;;;;;;;;;;;;;;;;;;5038673;28;898;-63
2020/12/25 03:04:49;;;;;;;;;;;;;;;;;;5038740;28;904;-63
2020/12/25 03:07:15;;;;;;;;;;;;;;;;;;5038870;28;1361;-63
2020/12/25 03:09:40;;;;;;;;;;;;;;;;;;5038702;28;1902;-63
2020/12/25 03:12:07;;;;;;;;;;;;;;;;;;5038895;28;960;-63
2020/12/25 03:14:33;;;;;;;;;;;;;;;;;;5039291;28;784;-63
2020/12/25 03:16:58;;;;;;;;;;;;;;;;;;5038691;28;1267;-63
2020/12/25 03:19:24;;;;;;;;;;;;;;;;;;5038543;28;828;-63
2020/12/25 03:21:50;;;;;;;;;;;;;;;;;;5037622;28;1004;-62
2020/12/25 03:24:15;;;;;;;;;;;;;;;;;;5038337;28;918;-63
2020/12/25 03:26:41;;;;;;;;;;;;;;;;;;5037889;28;1353;-64
2020/12/25 03:29:07;;;;;;;;;;;;;;;;;;5038640;28;801;-63
2020/12/25 03:31:32;;;;;;;;;;;;;;;;;;5037889;28;1894;-64
2020/12/25 03:33:58;;;;;;;;;;;;;;;;;;5038110;28;809;-64
2020/12/25 03:36:24;;;;;;;;;;;;;;;;;;5037536;28;1262;-64
2020/12/25 03:38:49;;;;;;;;;;;;;;;;;;5037547;28;1000;-63
2020/12/25 03:41:15;;;;;;;;;;;;;;;;;;5038064;28;847;-64
2020/12/25 03:43:40;;;;;;;;;;;;;;;;;;5038161;28;983;-63
2020/12/25 03:46:06;;;;;;;;;;;;;;;;;;5037957;28;1258;-64
2020/12/25 03:48:32;;;;;;;;;;;;;;;;;;5038047;28;899;-63
2020/12/25 03:51:00;;;;;;;;;;;;;;;;;;5037697;28;1965;-63
2020/12/25 03:53:26;;;;;;;;;;;;;;;;;;5037649;28;908;-63
2020/12/25 03:55:51;;;;;;;;;;;;;;;;;;5036519;28;1266;-64
2020/12/25 03:58:17;;;;;;;;;;;;;;;;;;5037343;28;965;-63
2020/12/25 04:00:42;;;;;;;;;;;;;;;;;;5037925;28;1069;-63
2020/12/25 04:03:08;;;;;;;;;;;;;;;;;;5037610;28;816;-63
2020/12/25 04:05:34;;;;;;;;;;;;;;;;;;5037273;28;799;-63
2020/12/25 04:07:59;;;;;;;;;;;;;;;;;;5037390;28;1338;-63
2020/12/25 04:10:25;;;;;;;;;;;;;;;;;;5037586;28;1965;-63
2020/12/25 04:12:51;;;;;;;;;;;;;;;;;;5037594;28;801;-63
2020/12/25 04:15:16;;;;;;;;;;;;;;;;;;5037323;28;808;-63
2020/12/25 04:17:42;;;;;;;;;;;;;;;;;;5037322;28;1326;-62
2020/12/25 04:20:08;;;;;;;;;;;;;;;;;;5037493;28;1043;-63
2020/12/25 04:22:33;;;;;;;;;;;;;;;;;;5037620;28;812;-63
2020/12/25 04:24:59;;;;;;;;;;;;;;;;;;5037342;28;897;-63
2020/12/25 04:27:25;;;;;;;;;;;;;;;;;;5037703;28;1271;-62
2020/12/25 04:29:50;;;;;;;;;;;;;;;;;;5037226;28;1911;-63
2020/12/25 04:32:16;;;;;;;;;;;;;;;;;;5037039;28;807;-64
2020/12/25 04:34:42;;;;;;;;;;;;;;;;;;5036693;28;869;-63
2020/12/25 04:37:07;;;;;;;;;;;;;;;;;;5037118;28;1255;-63
2020/12/25 04:39:33;;;;;;;;;;;;;;;;;;5036727;28;797;-63
2020/12/25 04:41:59;;;;;;;;;;;;;;;;;;5037760;28;801;-63
2020/12/25 04:44:24;;;;;;;;;;;;;;;;;;5036931;28;921;-63
2020/12/25 04:46:51;;;;;;;;;;;;;;;;;;5037045;28;1267;-63
2020/12/25 04:49:18;;;;;;;;;;;;;;;;;;5036828;28;928;-63
2020/12/25 04:51:44;;;;;;;;;;;;;;;;;;5018761;28;1965;-63
2020/12/25 04:54:09;;;;;;;;;;;;;;;;;;5036656;28;819;-63
2020/12/25 04:56:35;;;;;;;;;;;;;;;;;;5036274;28;1262;-63
2020/12/25 04:59:01;;;;;;;;;;;;;;;;;;5036781;28;479;-63
2020/12/25 05:01:26;;;;;;;;;;;;;;;;;;5036628;28;804;-63
2020/12/25 05:03:52;;;;;;;;;;;;;;;;;;5036724;28;1138;-63
2020/12/25 05:06:18;;;;;;;;;;;;;;;;;;5036300;28;1421;-63
2020/12/25 05:08:53;;;;;;;;;;;;;;;;;;5035937;28;935;-63
2020/12/25 05:11:19;;;;;;;;;;;;;;;;;;5036652;28;1898;-63
2020/12/25 05:13:46;;;;;;;;;;;;;;;;;;5036354;28;836;-63
2020/12/25 05:16:12;;;;;;;;;;;;;;;;;;5035777;28;1247;-63
2020/12/25 05:18:45;;;;;;;;;;;;;;;;;;5036678;28;902;-63
2020/12/25 05:21:12;;;;;;;;;;;;;;;;;;5035691;28;992;-63
2020/12/25 05:23:39;;;;;;;;;;;;;;;;;;5036001;28;839;-63
2020/12/25 05:26:06;;;;;;;;;;;;;;;;;;5017946;28;1279;-63
2020/12/25 05:28:35;;;;;;;;;;;;;;;;;;5036386;28;862;-63
2020/12/25 05:31:01;;;;;;;;;;;;;;;;;;5035646;28;1963;-62
2020/12/25 05:33:27;;;;;;;;;;;;;;;;;;5036718;28;820;-63
2020/12/25 05:35:54;;;;;;;;;;;;;;;;;;5035949;28;1275;-63
2020/12/25 05:38:21;;;;;;;;;;;;;;;;;;5035579;28;796;-63
2020/12/25 05:40:46;;;;;;;;;;;;;;;;;;5035883;28;875;-63
2020/12/25 05:43:17;;;;;;;;;;;;;;;;;;5036078;28;797;-63
2020/12/25 05:45:43;;;;;;;;;;;;;;;;;;5035672;28;1266;-63
2020/12/25 05:48:09;;;;;;;;;;;;;;;;;;5035881;28;821;-58
2020/12/25 05:50:35;;;;;;;;;;;;;;;;;;5037046;28;1890;-63
2020/12/25 05:53:01;;;;;;;;;;;;;;;;;;5035853;28;788;-63
2020/12/25 05:55:27;;;;;;;;;;;;;;;;;;5035561;28;832;-63
2020/12/25 05:57:54;;;;;;;;;;;;;;;;;;5035098;28;1258;-63
2020/12/25 06:00:20;;;;;;;;;;;;;;;;;;5035271;28;943;-63
2020/12/25 06:02:50;;;;;;;;;;;;;;;;;;5035280;28;891;-63
2020/12/25 06:05:16;;;;;;;;;;;;;;;;;;5035226;28;879;-63
2020/12/25 06:07:51;;;;;;;;;;;;;;;;;;5035476;28;1259;-63
2020/12/25 06:10:18;;;;;;;;;;;;;;;;;;5035123;28;1969;-63
2020/12/25 06:12:44;;;;;;;;;;;;;;;;;;5035050;28;784;-64
2020/12/25 06:15:11;;;;;;;;;;;;;;;;;;5035701;28;741;-63
2020/12/25 06:17:39;;;;;;;;;;;;;;;;;;5035151;28;1270;-63
2020/12/25 06:20:07;;;;;;;;;;;;;;;;;;5034753;28;816;-63
2020/12/25 06:22:37;;;;;;;;;;;;;;;;;;5035360;28;916;-63
2020/12/25 06:25:07;;;;;;;;;;;;;;;;;;5035158;28;836;-63
2020/12/25 06:27:33;;;;;;;;;;;;;;;;;;5034907;28;1247;-63
2020/12/25 06:30:00;;;;;;;;;;;;;;;;;;5034820;28;1898;-63
2020/12/25 06:32:26;;;;;;;;;;;;;;;;;;5034833;28;884;-63
2020/12/25 06:34:53;;;;;;;;;;;;;;;;;;5034785;28;812;-62
2020/12/25 06:37:19;;;;;;;;;;;;;;;;;;5035092;28;1250;-63
2020/12/25 06:39:51;;;;;;;;;;;;;;;;;;5034281;28;953;-63
2020/12/25 06:42:24;;;;;;;;;;;;;;;;;;5035261;28;891;-63
2020/12/25 06:44:50;;;;;;;;;;;;;;;;;;5034898;28;876;-63
2020/12/25 06:47:29;;;;;;;;;;;;;;;;;;5035170;28;1334;-63
2020/12/25 06:49:55;;;;;;;;;;;;;;;;;;5034918;28;1969;-63
2020/12/25 06:52:28;;;;;;;;;;;;;;;;;;5035046;28;741;-63
2020/12/25 06:54:53;;;;;;;;;;;;;;;;;;5034788;28;949;-63
2020/12/25 06:57:22;;;;;;;;;;;;;;;;;;5035018;28;1271;-63
2020/12/25 06:59:47;;;;;;;;;;;;;;;;;;5034875;28;912;-63
2020/12/25 07:02:13;;;;;;;;;;;;;;;;;;5034748;28;958;-63
2020/12/25 07:04:39;;;;;;;;;;;;;;;;;;5034648;28;984;-63
2020/12/25 07:07:06;;;;;;;;;;;;;;;;;;5034864;28;1270;-64
2020/12/25 07:09:42;;;;;;;;;;;;;;;;;;5034573;28;1081;-63
2020/12/25 07:12:19;;;;;;;;;;;;;;;;;;5034418;28;1898;-64
2020/12/25 07:14:45;;;;;;;;;;;;;;;;;;5034803;28;563;-63
2020/12/25 07:17:11;;;;;;;;;;;;;;;;;;5034628;28;1337;-63
2020/12/25 07:19:37;;;;;;;;;;;;;;;;;;5034591;28;910;-63
2020/12/25 07:22:03;;;;;;;;;;;;;;;;;;5035532;28;1065;-53
2020/12/25 07:24:29;;;;;;;;;;;;;;;;;;5035999;28;992;-55
2020/12/25 07:26:56;;;;;;;;;;;;;;;;;;5036184;28;1282;-56
2020/12/25 07:29:22;;;;;;;;;;;;;;;;;;5036337;28;1053;-54
2020/12/25 07:31:49;;;;;;;;;;;;;;;;;;5025241;28;3949;-57
2020/12/25 07:34:18;;;;;;;;;;;;;;;;;;5038698;28;3553;-54
2020/12/25 07:36:44;;;;;;;;;;;;;;;;;;5033627;28;3591;-54
2020/12/25 07:39:10;;;;;;;;;;;;;;;;;;5020139;28;884;-54
2020/12/25 07:41:36;;;;;;;;;;;;;;;;;;5020257;28;797;-55
2020/12/25 07:44:02;;;;;;;;;;;;;;;;;;5021019;28;882;-57
2020/12/25 07:46:29;;;;;;;;;;;;;;;;;;5019932;28;1298;-56
2020/12/25 07:48:55;;;;;;;;;;;;;;;;;;5026073;28;3772;-55
2020/12/25 07:51:22;;;;;;;;;;;;;;;;;;5039526;28;1965;-54
2020/12/25 07:53:48;;;;;;;;;;;;;;;;;;5039672;28;804;-54
2020/12/25 07:56:14;;;;;;;;;;;;;;;;;;5039095;28;1290;-56
2020/12/25 07:58:40;;;;;;;;;;;;;;;;;;5039642;28;972;-54
2020/12/25 08:01:06;;;;;;;;;;;;;;;;;;5039352;28;832;-56
2020/12/25 08:03:33;;;;;;;;;;;;;;;;;;5039619;28;793;-54
2020/12/25 08:06:01;;;;;;;;;;;;;;;;;;5039518;28;1298;-60
2020/12/25 08:08:27;;;;;;;;;;;;;;;;;;5038801;28;1025;-57
2020/12/25 08:10:54;;;;;;;;;;;;;;;;;;5039365;28;1961;-54
2020/12/25 08:13:20;;;;;;;;;;;;;;;;;;5039359;28;881;-56
2020/12/25 08:15:46;;;;;;;;;;;;;;;;;;5038662;28;1377;-55
2020/12/25 08:18:13;;;;;;;;;;;;;;;;;;5039827;28;1570;-60
2020/12/25 08:20:39;;;;;;;;;;;;;;;;;;5051928;28;1795;-59
2020/12/25 08:23:04;;;;;;;;;;;;;;;;;;5047834;28;1282;-55
2020/12/25 08:25:30;;;;;;;;;;;;;;;;;;5036972;28;932;-56
2020/12/25 08:27:56;;;;;;;;;;;;;;;;;;5038260;28;1353;-56
2020/12/25 08:30:23;;;;;;;;;;;;;;;;;;5039240;28;1973;-54
2020/12/25 08:32:50;;;;;;;;;;;;;;;;;;5038367;28;797;-60
2020/12/25 08:35:17;;;;;;;;;;;;;;;;;;5036738;28;1122;-60
2020/12/25 08:37:52;;;;;;;;;;;;;;;;;;5036981;28;1259;-60
2020/12/25 08:40:18;;;;;;;;;;;;;;;;;;5036744;28;960;-60
2020/12/25 08:42:44;;;;;;;;;;;;;;;;;;5036146;28;795;-59
2020/12/25 08:45:15;;;;;;;;;;;;;;;;;;5036855;28;812;-60
2020/12/25 08:47:41;;;;;;;;;;;;;;;;;;5037531;28;1322;-60
2020/12/25 08:50:07;;;;;;;;;;;;;;;;;;5037642;28;901;-59
2020/12/25 08:52:33;;;;;;;;;;;;;;;;;;5034227;28;3989;-61
2020/12/25 08:54:59;;;;;;;;;;;;;;;;;;5035534;28;923;-60
2020/12/25 08:57:25;;;;;;;;;;;;;;;;;;5035299;28;1341;-59
2020/12/25 09:00:20;;;;;;;;;;;;;;;;;;5036830;28;903;-61
2020/12/25 09:02:55;;;;;;;;;;;;;;;;;;5020005;28;1430;-59
2020/12/25 09:05:20;;;;;;;;;;;;;;;;;;5036896;28;559;-60
2020/12/25 09:07:46;;;;;;;;;;;;;;;;;;5037663;28;1735;-60
2020/12/25 09:10:12;;;;;;;;;;;;;;;;;;5033807;28;3409;-61
2020/12/25 09:12:37;;;;;;;;;;;;;;;;;;5036207;28;3411;-60
2020/12/25 09:15:03;;;;;;;;;;;;;;;;;;5036761;28;870;-60
2020/12/25 09:17:29;;;;;;;;;;;;;;;;;;5036728;28;1267;-59
2020/12/25 09:19:54;;;;;;;;;;;;;;;;;;5036490;28;799;-59
2020/12/25 09:22:20;;;;;;;;;;;;;;;;;;5036452;28;883;-60
2020/12/25 09:24:47;;;;;;;;;;;;;;;;;;5036263;28;784;-60
2020/12/25 09:27:12;;;;;;;;;;;;;;;;;;5036124;28;1282;-59
2020/12/25 09:29:38;;;;;;;;;;;;;;;;;;5036385;28;1001;-58
2020/12/25 09:32:04;;;;;;;;;;;;;;;;;;5036317;28;1973;-60
2020/12/25 09:34:29;;;;;;;;;;;;;;;;;;5035984;28;902;-60
2020/12/25 09:36:55;;;;;;;;;;;;;;;;;;5035435;28;1254;-60
2020/12/25 09:39:20;;;;;;;;;;;;;;;;;;5035834;28;825;-59
2020/12/25 09:41:48;;;;;;;;;;;;;;;;;;5035973;28;820;-59
2020/12/25 09:44:14;;;;;;;;;;;;;;;;;;5036191;28;979;-60
2020/12/25 09:46:42;;;;;;;;;;;;;;;;;;5035044;28;1262;-59
2020/12/25 09:49:08;;;;;;;;;;;;;;;;;;5035820;28;875;-60
2020/12/25 09:51:34;;;;;;;;;;;;;;;;;;5033156;28;3680;-60
2020/12/25 09:53:59;;;;;;;;;;;;;;;;;;5036271;28;1051;-58
2020/12/25 09:56:25;;;;;;;;;;;;;;;;;;5037003;28;1258;-54
2020/12/25 09:58:51;;;;;;;;;;;;;;;;;;5036936;28;898;-56
2020/12/25 10:01:18;;;;;;;;;;;;;;;;;;5036649;28;729;-55
2020/12/25 10:03:44;;;;;;;;;;;;;;;;;;5036849;28;918;-56
2020/12/25 10:06:10;;;;;;;;;;;;;;;;;;5036668;28;1278;-57
2020/12/25 10:08:35;;;;;;;;;;;;;;;;;;5037089;28;910;-58
2020/12/25 10:11:01;;;;;;;;;;;;;;;;;;5036826;28;1968;-53
2020/12/25 10:13:27;;;;;;;;;;;;;;;;;;5037077;28;813;-55
2020/12/25 10:15:53;;;;;;;;;;;;;;;;;;5036659;28;1347;-53
2020/12/25 10:18:19;;;;;;;;;;;;;;;;;;5037045;28;887;-55
2020/12/25 10:20:45;;;;;;;;;;;;;;;;;;5036871;28;897;-53
2020/12/25 10:23:10;;;;;;;;;;;;;;;;;;5036566;28;980;-57
2020/12/25 10:25:36;;;;;;;;;;;;;;;;;;5035834;28;882;-58
2020/12/25 10:28:02;;;;;;;;;;;;;;;;;;5030368;28;3897;-54
2020/12/25 10:30:27;;;;;;;;;;;;;;;;;;5034179;28;3716;-58
2020/12/25 10:33:03;;;;;;;;;;;;;;;;;;5034712;28;3173;-59
2020/12/25 10:35:29;;;;;;;;;;;;;;;;;;5016680;28;1786;-57
2020/12/25 10:37:54;;;;;;;;;;;;;;;;;;5034505;28;1370;-57
2020/12/25 10:40:21;;;;;;;;;;;;;;;;;;5034438;28;926;-56
2020/12/25 10:42:47;;;;;;;;;;;;;;;;;;5034666;28;1038;-60
2020/12/25 10:45:13;;;;;;;;;;;;;;;;;;5034517;28;3929;-60
2020/12/25 10:47:38;;;;;;;;;;;;;;;;;;5033687;28;1444;-58
2020/12/25 10:50:04;;;;;;;;;;;;;;;;;;5034620;28;1115;-58
2020/12/25 10:52:30;;;;;;;;;;;;;;;;;;5034602;28;1894;-60
2020/12/25 10:54:55;;;;;;;;;;;;;;;;;;5033875;28;927;-56
2020/12/25 10:57:21;;;;;;;;;;;;;;;;;;5034497;28;1456;-58
2020/12/25 10:59:49;;;;;;;;;;;;;;;;;;5034451;28;1134;-60
2020/12/25 11:02:14;;;;;;;;;;;;;;;;;;5034487;28;770;-61
2020/12/25 11:04:40;;;;;;;;;;;;;;;;;;5034652;28;915;-57
2020/12/25 11:07:06;;;;;;;;;;;;;;;;;;5036441;28;1357;-60
2020/12/25 11:09:31;;;;;;;;;;;;;;;;;;5039041;28;832;-61
2020/12/25 11:11:57;;;;;;;;;;;;;;;;;;5038974;28;1919;-60
2020/12/25 11:14:23;;;;;;;;;;;;;;;;;;5038962;28;970;-60
2020/12/25 11:16:49;;;;;;;;;;;;;;;;;;5039193;28;1341;-57
2020/12/25 11:19:16;;;;;;;;;;;;;;;;;;5039056;28;808;-59
2020/12/25 11:21:41;;;;;;;;;;;;;;;;;;5035432;28;3427;-60
2020/12/25 11:24:07;;;;;;;;;;;;;;;;;;5039121;28;910;-57
2020/12/25 11:26:35;;;;;;;;;;;;;;;;;;5038716;28;1385;-56
2020/12/25 11:29:02;;;;;;;;;;;;;;;;;;5039195;28;1005;-55
2020/12/25 11:31:28;;;;;;;;;;;;;;;;;;5039218;28;1906;-55
2020/12/25 11:33:54;;;;;;;;;;;;;;;;;;5039349;28;896;-58
2020/12/25 11:36:22;;;;;;;;;;;;;;;;;;5038726;28;1334;-59
2020/12/25 11:38:48;;;;;;;;;;;;;;;;;;5038803;28;790;-55
2020/12/25 11:41:14;;;;;;;;;;;;;;;;;;5039085;28;808;-57
2020/12/25 11:43:40;;;;;;;;;;;;;;;;;;5038998;28;866;-54
2020/12/25 11:46:06;;;;;;;;;;;;;;;;;;5038780;28;1350;-55
2020/12/25 11:48:32;;;;;;;;;;;;;;;;;;5038311;28;919;-59
2020/12/25 11:50:58;;;;;;;;;;;;;;;;;;5038991;28;1910;-59
2020/12/25 11:53:24;;;;;;;;;;;;;;;;;;5038099;28;1007;-58
2020/12/25 11:55:50;;;;;;;;;;;;;;;;;;5038480;28;1416;-57
2020/12/25 11:58:16;;;;;;;;;;;;;;;;;;5038585;28;1071;-57
2020/12/25 12:00:42;;;;;;;;;;;;;;;;;;5038898;28;863;-60
2020/12/25 12:03:07;;;;;;;;;;;;;;;;;;5037948;28;821;-59
2020/12/25 12:05:33;;;;;;;;;;;;;;;;;;5037618;28;815;-58
2020/12/25 12:07:59;;;;;;;;;;;;;;;;;;5037612;28;1728;-60
2020/12/25 12:10:24;;;;;;;;;;;;;;;;;;5037122;28;824;-60
2020/12/25 12:12:50;;;;;;;;;;;;;;;;;;5037223;28;1902;-61
2020/12/25 12:15:16;;;;;;;;;;;;;;;;;;5037573;28;913;-60
2020/12/25 12:17:41;;;;;;;;;;;;;;;;;;5035771;28;1448;-60
2020/12/25 12:20:07;;;;;;;;;;;;;;;;;;5036742;28;1191;-61
2020/12/25 12:22:33;;;;;;;;;;;;;;;;;;5036509;28;2727;-60
2020/12/25 12:25:02;;;;;;;;;;;;;;;;;;5036724;28;828;-60
2020/12/25 12:27:28;;;;;;;;;;;;;;;;;;5036581;28;1438;-60
2020/12/25 12:29:54;;;;;;;;;;;;;;;;;;5036614;28;737;-60
2020/12/25 12:32:19;;;;;;;;;;;;;;;;;;5036651;28;1898;-61
2020/12/25 12:34:45;;;;;;;;;;;;;;;;;;5036465;28;844;-56
2020/12/25 12:37:11;;;;;;;;;;;;;;;;;;5037731;28;1342;-55
2020/12/25 12:39:36;;;;;;;;;;;;;;;;;;5038059;28;735;-58
2020/12/25 12:42:02;;;;;;;;;;;;;;;;;;5019766;28;864;-58
2020/12/25 12:44:28;;;;;;;;;;;;;;;;;;5037736;28;886;-56
2020/12/25 12:46:54;;;;;;;;;;;;;;;;;;5037794;28;1459;-55
2020/12/25 12:49:21;;;;;;;;;;;;;;;;;;5037714;28;881;-60
2020/12/25 12:51:46;;;;;;;;;;;;;;;;;;5037052;28;1902;-61
2020/12/25 12:54:12;;;;;;;;;;;;;;;;;;5036701;28;830;-61
2020/12/25 12:56:38;;;;;;;;;;;;;;;;;;5036530;28;1330;-59
2020/12/25 12:59:03;;;;;;;;;;;;;;;;;;5036473;28;1348;-57
2020/12/25 13:01:29;;;;;;;;;;;;;;;;;;5036523;28;971;-57
2020/12/25 13:03:55;;;;;;;;;;;;;;;;;;5036823;28;832;-61
2020/12/25 13:06:20;;;;;;;;;;;;;;;;;;5036822;28;1349;-61
2020/12/25 13:08:46;;;;;;;;;;;;;;;;;;5036551;28;804;-59
2020/12/25 13:11:12;;;;;;;;;;;;;;;;;;5036465;28;848;-61
2020/12/25 13:13:37;;;;;;;;;;;;;;;;;;5036344;28;1965;-61
2020/12/25 13:16:03;;;;;;;;;;;;;;;;;;5036195;28;1733;-58
2020/12/25 13:18:29;;;;;;;;;;;;;;;;;;5036232;28;910;-60
2020/12/25 13:20:54;;;;;;;;;;;;;;;;;;5036124;28;3024;-61
2020/12/25 13:23:20;;;;;;;;;;;;;;;;;;5036118;28;935;-57
2020/12/25 13:25:46;;;;;;;;;;;;;;;;;;5036159;28;1409;-61
2020/12/25 13:28:11;;;;;;;;;;;;;;;;;;5035658;28;749;-58
2020/12/25 13:30:37;;;;;;;;;;;;;;;;;;5035449;28;898;-61
2020/12/25 13:33:03;;;;;;;;;;;;;;;;;;5035289;28;1960;-61
2020/12/25 13:35:28;;;;;;;;;;;;;;;;;;5035115;28;872;-60
2020/12/25 13:37:54;;;;;;;;;;;;;;;;;;5035921;28;1747;-60
2020/12/25 13:40:20;;;;;;;;;;;;;;;;;;5035516;28;841;-60
2020/12/25 13:42:45;;;;;;;;;;;;;;;;;;5034941;28;941;-61
2020/12/25 13:45:11;;;;;;;;;;;;;;;;;;5035565;28;841;-61
2020/12/25 13:47:37;;;;;;;;;;;;;;;;;;5035612;28;1325;-60
2020/12/25 13:50:03;;;;;;;;;;;;;;;;;;5035662;28;986;-59
2020/12/25 13:52:29;;;;;;;;;;;;;;;;;;5035407;28;1894;-66
2020/12/25 13:54:54;;;;;;;;;;;;;;;;;;5035584;28;919;-58
2020/12/25 13:57:20;;;;;;;;;;;;;;;;;;5034621;28;1413;-61
2020/12/25 13:59:46;;;;;;;;;;;;;;;;;;5035255;28;1009;-60
2020/12/25 14:02:11;;;;;;;;;;;;;;;;;;5035258;28;886;-61
2020/12/25 14:04:37;;;;;;;;;;;;;;;;;;5035182;28;1192;-61
2020/12/25 14:07:03;;;;;;;;;;;;;;;;;;5035366;28;1457;-60
2020/12/25 14:09:28;;;;;;;;;;;;;;;;;;5034948;28;1173;-59
2020/12/25 14:11:57;;;;;;;;;;;;;;;;;;5035113;28;1898;-61
2020/12/25 14:14:23;;;;;;;;;;;;;;;;;;5032308;28;1003;-61
2020/12/25 14:16:50;;;;;;;;;;;;;;;;;;5034877;28;1381;-59
2020/12/25 14:19:15;;;;;;;;;;;;;;;;;;5033916;28;3330;-60
2020/12/25 14:21:41;;;;;;;;;;;;;;;;;;5034589;28;837;-62
2020/12/25 14:24:07;;;;;;;;;;;;;;;;;;5034887;28;1081;-61
2020/12/25 14:26:32;;;;;;;;;;;;;;;;;;5036173;28;1425;-55
2020/12/25 14:29:03;;;;;;;;;;;;;;;;;;5036563;28;895;-56
2020/12/25 14:31:28;;;;;;;;;;;;;;;;;;5034456;28;840;-61
2020/12/25 14:33:54;;;;;;;;;;;;;;;;;;5034881;28;1890;-61
2020/12/25 14:36:20;;;;;;;;;;;;;;;;;;5034498;28;1405;-58
2020/12/25 14:38:45;;;;;;;;;;;;;;;;;;5034593;28;883;-61
2020/12/25 14:41:11;;;;;;;;;;;;;;;;;;5038770;28;832;-61
2020/12/25 14:43:37;;;;;;;;;;;;;;;;;;5041307;28;795;-60
2020/12/25 14:46:02;;;;;;;;;;;;;;;;;;5041162;28;1330;-59
2020/12/25 14:48:28;;;;;;;;;;;;;;;;;;5041681;28;829;-61
2020/12/25 14:50:54;;;;;;;;;;;;;;;;;;5041781;28;915;-61
2020/12/25 14:53:19;;;;;;;;;;;;;;;;;;5041588;28;1890;-60
2020/12/25 14:55:46;;;;;;;;;;;;;;;;;;5041274;28;1349;-61
2020/12/25 14:58:13;;;;;;;;;;;;;;;;;;5041228;28;1041;-60
2020/12/25 15:00:39;;;;;;;;;;;;;;;;;;5040788;28;1194;-61
2020/12/25 15:03:05;;;;;;;;;;;;;;;;;;5037905;28;877;-61
2020/12/25 15:05:31;;;;;;;;;;;;;;;;;;5041567;28;1084;-60
2020/12/25 15:07:56;;;;;;;;;;;;;;;;;;5041228;28;1338;-58
2020/12/25 15:10:22;;;;;;;;;;;;;;;;;;5041244;28;935;-61
2020/12/25 15:12:48;;;;;;;;;;;;;;;;;;5041082;28;1980;-61
2020/12/25 15:15:13;;;;;;;;;;;;;;;;;;5040995;28;806;-61
2020/12/25 15:17:39;;;;;;;;;;;;;;;;;;5040713;28;1369;-61
2020/12/25 15:20:05;;;;;;;;;;;;;;;;;;5040351;28;3352;-61
2020/12/25 15:22:30;;;;;;;;;;;;;;;;;;5040875;28;902;-61
2020/12/25 15:24:56;;;;;;;;;;;;;;;;;;5040601;28;885;-60
2020/12/25 15:27:22;;;;;;;;;;;;;;;;;;5040781;28;1401;-61
2020/12/25 15:29:48;;;;;;;;;;;;;;;;;;5040625;28;736;-60
2020/12/25 15:32:13;;;;;;;;;;;;;;;;;;5040754;28;1968;-61
2020/12/25 15:34:39;;;;;;;;;;;;;;;;;;5040470;28;887;-61
2020/12/25 15:37:09;;;;;;;;;;;;;;;;;;5040954;28;1357;-61
2020/12/25 15:39:37;;;;;;;;;;;;;;;;;;5040972;28;979;-56
2020/12/25 15:42:03;;;;;;;;;;;;;;;;;;5042256;28;907;-57
2020/12/25 15:44:29;;;;;;;;;;;;;;;;;;5024246;28;968;-56
2020/12/25 15:46:54;;;;;;;;;;;;;;;;;;5042837;28;1397;-58
2020/12/25 15:49:22;;;;;;;;;;;;;;;;;;5042405;28;795;-59
2020/12/25 15:51:48;;;;;;;;;;;;;;;;;;5040224;28;1946;-57
2020/12/25 15:54:14;;;;;;;;;;;;;;;;;;5038948;28;930;-59
2020/12/25 15:56:40;;;;;;;;;;;;;;;;;;5038568;28;1357;-58
2020/12/25 15:59:06;;;;;;;;;;;;;;;;;;5038656;28;930;-59
2020/12/25 16:01:32;;;;;;;;;;;;;;;;;;5038853;28;976;-57
2020/12/25 16:03:58;;;;;;;;;;;;;;;;;;5038511;28;840;-58
2020/12/25 16:06:28;;;;;;;;;;;;;;;;;;5052664;28;1432;-56
2020/12/25 16:08:54;;;;;;;;;;;;;;;;;;5039040;28;717;-57
2020/12/25 16:11:20;;;;;;;;;;;;;;;;;;5038678;28;808;-57
2020/12/25 16:13:45;;;;;;;;;;;;;;;;;;5038487;28;1898;-57
2020/12/25 16:16:11;;;;;;;;;;;;;;;;;;5038179;28;1452;-59
2020/12/25 16:18:37;;;;;;;;;;;;;;;;;;5038486;28;898;-58
2020/12/25 16:21:02;;;;;;;;;;;;;;;;;;5037507;28;3297;-58
2020/12/25 16:23:28;;;;;;;;;;;;;;;;;;5038550;28;842;-57
2020/12/25 16:25:54;;;;;;;;;;;;;;;;;;5037471;28;1337;-57
2020/12/25 16:28:19;;;;;;;;;;;;;;;;;;5037474;28;874;-59
2020/12/25 16:30:45;;;;;;;;;;;;;;;;;;5038971;28;925;-66
2020/12/25 16:33:11;;;;;;;;;;;;;;;;;;5037633;28;1898;-68
2020/12/25 16:35:36;;;;;;;;;;;;;;;;;;5037699;28;819;-74
2020/12/25 16:38:02;;;;;;;;;;;;;;;;;;5037611;28;1418;-61
2020/12/25 16:40:27;;;;;;;;;;;;;;;;;;5037962;28;832;-62
2020/12/25 16:42:55;;;;;;;;;;;;;;;;;;5037879;28;904;-62
2020/12/25 16:45:21;;;;;;;;;;;;;;;;;;5037628;28;820;-57
2020/12/25 16:47:47;;;;;;;;;;;;;;;;;;5038103;28;1322;-55
2020/12/25 16:50:12;;;;;;;;;;;;;;;;;;5038148;28;821;-58
2020/12/25 16:52:38;;;;;;;;;;;;;;;;;;5037953;28;1961;-55
2020/12/25 16:55:04;;;;;;;;;;;;;;;;;;5038172;28;1045;-58
2020/12/25 16:57:30;;;;;;;;;;;;;;;;;;5037461;28;1416;-55
2020/12/25 16:59:56;;;;;;;;;;;;;;;;;;5037392;28;963;-55
2020/12/25 17:02:21;;;;;;;;;;;;;;;;;;5037719;28;812;-56
2020/12/25 17:04:47;;;;;;;;;;;;;;;;;;5036477;28;919;-56
2020/12/25 17:07:12;;;;;;;;;;;;;;;;;;5031507;28;3272;-56